Time;durP1;ratioP1;P1;durP2;ratioP2;P2;SDS_P1;SDS_P2;PMS_P1;PMS_P2;Temp;Humidity;BMP_temperature;BMP_pressure;BME280_temperature;BME280_humidity;BME280_pressure;Samples;Min_cycle;Max_cycle;Signal;HPM_P1;HPM_P2
2022/03/28 00:00:05;;;;;;;25.60;9.20;;;;;;;;;;4896914;28;21741;-78
2022/03/28 00:02:31;;;;;;;21.20;8.98;;;;;;;;;;4894647;28;20121;-77
2022/03/28 00:04:57;;;;;;;23.73;9.43;;;;;;;;;;4896732;28;20260;-77
2022/03/28 00:07:22;;;;;;;28.42;9.20;;;;;;;;;;4901326;28;20064;-77
2022/03/28 00:09:48;;;;;;;28.63;10.00;;;;;;;;;;4895307;28;20105;-76
2022/03/28 00:12:13;;;;;;;25.05;9.85;;;;;;;;;;4903275;28;20165;-75
2022/03/28 00:14:39;;;;;;;21.42;9.98;;;;;;;;;;4895856;28;20845;-76
2022/03/28 00:17:07;;;;;;;28.05;10.68;;;;;;;;;;4895734;28;20410;-76
2022/03/28 00:19:32;;;;;;;27.70;9.95;;;;;;;;;;4898948;28;20045;-77
2022/03/28 00:21:58;;;;;;;25.92;10.20;;;;;;;;;;4896991;28;21175;-76
2022/03/28 00:24:23;;;;;;;24.48;10.02;;;;;;;;;;4897353;28;20302;-77
2022/03/28 00:26:49;;;;;;;23.10;9.10;;;;;;;;;;4895293;28;20045;-76
2022/03/28 00:29:14;;;;;;;23.25;9.27;;;;;;;;;;4902573;28;20154;-76
2022/03/28 00:31:40;;;;;;;26.67;9.80;;;;;;;;;;4927193;28;20050;-76
2022/03/28 00:34:06;;;;;;;30.00;10.00;;;;;;;;;;4899921;28;20753;-76
2022/03/28 00:36:34;;;;;;;25.75;9.68;;;;;;;;;;4897275;28;20470;-76
2022/03/28 00:39:02;;;;;;;20.85;8.60;;;;;;;;;;4894816;28;20637;-77
2022/03/28 00:41:28;;;;;;;25.83;10.57;;;;;;;;;;4900561;28;20929;-78
2022/03/28 00:43:55;;;;;;;30.65;9.63;;;;;;;;;;4892796;28;20500;-77
2022/03/28 00:46:21;;;;;;;23.15;9.80;;;;;;;;;;4896894;28;20729;-77
2022/03/28 00:48:46;;;;;;;28.70;11.93;;;;;;;;;;4893087;28;20036;-77
2022/03/28 00:51:16;;;;;;;26.40;10.07;;;;;;;;;;4894961;28;20050;-76
2022/03/28 00:53:42;;;;;;;28.08;9.32;;;;;;;;;;4901041;28;20042;-76
2022/03/28 00:56:08;;;;;;;28.73;10.25;;;;;;;;;;4895789;28;20619;-77
2022/03/28 00:58:34;;;;;;;28.10;9.73;;;;;;;;;;4897440;28;20030;-77
2022/03/28 01:00:59;;;;;;;24.80;9.90;;;;;;;;;;4895732;28;20129;-77
2022/03/28 01:03:30;;;;;;;24.42;9.68;;;;;;;;;;4894706;28;21184;-76
2022/03/28 01:05:56;;;;;;;28.33;10.57;;;;;;;;;;4895547;28;20066;-77
2022/03/28 01:08:23;;;;;;;27.45;10.02;;;;;;;;;;4910893;28;20148;-77
2022/03/28 01:10:53;;;;;;;32.92;11.82;;;;;;;;;;4907083;28;20053;-76
2022/03/28 01:13:19;;;;;;;24.75;9.52;;;;;;;;;;4899474;28;20497;-77
2022/03/28 01:15:45;;;;;;;29.17;9.57;;;;;;;;;;4896780;28;20143;-77
2022/03/28 01:18:11;;;;;;;31.23;10.40;;;;;;;;;;4893976;28;20869;-77
2022/03/28 01:20:39;;;;;;;24.92;8.98;;;;;;;;;;4889569;28;20132;-77
2022/03/28 01:23:08;;;;;;;26.40;8.90;;;;;;;;;;4908288;28;20142;-77
2022/03/28 01:25:37;;;;;;;26.45;9.80;;;;;;;;;;4896713;28;20030;-78
2022/03/28 01:28:05;;;;;;;27.02;10.45;;;;;;;;;;4911043;28;20102;-77
2022/03/28 01:30:32;;;;;;;28.80;11.48;;;;;;;;;;4890802;28;20053;-77
2022/03/28 01:33:01;;;;;;;28.75;11.23;;;;;;;;;;4900200;28;20047;-77
2022/03/28 01:35:38;;;;;;;34.67;9.90;;;;;;;;;;4897440;28;22288;-77
2022/03/28 01:38:09;;;;;;;31.25;10.77;;;;;;;;;;4893511;28;21725;-77
2022/03/28 01:40:37;;;;;;;27.75;10.50;;;;;;;;;;4891299;28;22355;-77
2022/03/28 01:43:03;;;;;;;32.67;11.52;;;;;;;;;;4897225;28;22039;-77
2022/03/28 01:45:28;;;;;;;25.85;10.20;;;;;;;;;;4910893;28;21693;-77
2022/03/28 01:47:54;;;;;;;25.23;10.20;;;;;;;;;;4895774;28;20738;-77
2022/03/28 01:50:20;;;;;;;27.20;10.73;;;;;;;;;;4890265;28;20901;-77
2022/03/28 01:52:46;;;;;;;29.92;11.02;;;;;;;;;;4891795;28;20750;-77
2022/03/28 01:55:13;;;;;;;26.98;11.10;;;;;;;;;;4894703;28;20045;-77
2022/03/28 01:57:41;;;;;;;27.05;11.27;;;;;;;;;;4901465;28;20421;-77
2022/03/28 02:00:12;;;;;;;28.20;10.75;;;;;;;;;;4892962;28;20041;-77
2022/03/28 02:02:38;;;;;;;24.27;10.38;;;;;;;;;;4901046;28;20872;-78
2022/03/28 02:05:05;;;;;;;24.83;10.13;;;;;;;;;;4896156;28;20124;-77
2022/03/28 02:07:31;;;;;;;34.67;10.63;;;;;;;;;;4902195;28;20144;-77
2022/03/28 02:09:56;;;;;;;33.15;10.77;;;;;;;;;;4891914;28;21933;-77
2022/03/28 02:12:22;;;;;;;27.85;11.13;;;;;;;;;;4893168;28;20050;-77
2022/03/28 02:14:48;;;;;;;36.38;11.48;;;;;;;;;;4891705;28;20549;-77
2022/03/28 02:17:13;;;;;;;27.50;10.85;;;;;;;;;;4895400;28;20043;-77
2022/03/28 02:19:38;;;;;;;32.28;10.40;;;;;;;;;;4895346;28;20040;-77
2022/03/28 02:22:04;;;;;;;24.10;9.50;;;;;;;;;;4895235;28;20046;-77
2022/03/28 02:24:30;;;;;;;35.92;12.30;;;;;;;;;;4909568;28;20183;-77
2022/03/28 02:26:56;;;;;;;29.63;11.43;;;;;;;;;;4895627;28;22544;-78
2022/03/28 02:29:24;;;;;;;29.08;12.25;;;;;;;;;;4900300;28;20153;-77
2022/03/28 02:31:49;;;;;;;28.75;11.98;;;;;;;;;;4903689;28;20042;-78
2022/03/28 02:34:15;;;;;;;37.63;13.00;;;;;;;;;;4900697;28;20041;-77
2022/03/28 02:36:41;;;;;;;25.17;10.90;;;;;;;;;;4897784;28;20690;-77
2022/03/28 02:39:06;;;;;;;31.60;10.65;;;;;;;;;;4902101;28;20100;-77
2022/03/28 02:41:32;;;;;;;31.30;11.18;;;;;;;;;;4902075;28;20594;-77
2022/03/28 02:43:57;;;;;;;28.90;10.98;;;;;;;;;;4893782;28;20553;-77
2022/03/28 02:46:23;;;;;;;32.13;12.13;;;;;;;;;;4895394;28;21199;-77
2022/03/28 02:48:48;;;;;;;31.00;11.38;;;;;;;;;;4899332;28;20606;-77
2022/03/28 02:51:16;;;;;;;29.40;10.73;;;;;;;;;;4898180;28;20041;-78
2022/03/28 02:53:41;;;;;;;28.90;11.38;;;;;;;;;;4900639;28;20678;-77
2022/03/28 02:56:07;;;;;;;27.20;10.88;;;;;;;;;;4899086;28;20044;-77
2022/03/28 02:58:32;;;;;;;26.67;10.88;;;;;;;;;;4899086;28;20042;-78
2022/03/28 03:00:58;;;;;;;21.75;9.65;;;;;;;;;;4893801;28;20073;-77
2022/03/28 03:03:23;;;;;;;27.17;10.18;;;;;;;;;;4896825;28;20045;-77
2022/03/28 03:05:52;;;;;;;26.35;10.48;;;;;;;;;;4902369;28;20767;-78
2022/03/28 03:08:17;;;;;;;27.23;10.38;;;;;;;;;;4896290;28;21490;-77
2022/03/28 03:10:43;;;;;;;30.23;9.70;;;;;;;;;;4895298;28;20753;-77
2022/03/28 03:13:09;;;;;;;25.50;10.52;;;;;;;;;;4896698;28;20049;-77
2022/03/28 03:15:35;;;;;;;30.25;11.20;;;;;;;;;;4903376;28;20649;-77
2022/03/28 03:18:00;;;;;;;28.00;10.23;;;;;;;;;;4897587;28;20119;-77
2022/03/28 03:20:26;;;;;;;27.45;10.93;;;;;;;;;;4897613;28;20891;-77
2022/03/28 03:22:51;;;;;;;30.35;11.25;;;;;;;;;;4901010;28;20046;-78
2022/03/28 03:25:17;;;;;;;26.02;9.95;;;;;;;;;;4921492;28;20139;-78
2022/03/28 03:27:43;;;;;;;25.75;10.10;;;;;;;;;;4906245;28;20042;-77
2022/03/28 03:30:10;;;;;;;26.77;10.10;;;;;;;;;;4896508;28;20057;-77
2022/03/28 03:32:36;;;;;;;30.75;10.13;;;;;;;;;;4912437;28;20677;-77
2022/03/28 03:35:03;;;;;;;25.17;10.77;;;;;;;;;;4897762;28;21715;-76
2022/03/28 03:37:29;;;;;;;27.75;10.73;;;;;;;;;;4899129;28;20030;-76
2022/03/28 03:39:54;;;;;;;36.95;14.02;;;;;;;;;;4896144;28;20079;-77
2022/03/28 03:42:22;;;;;;;30.67;11.18;;;;;;;;;;4897496;28;20172;-77
2022/03/28 03:44:47;;;;;;;24.63;9.90;;;;;;;;;;4899787;28;21821;-77
2022/03/28 03:47:13;;;;;;;25.73;9.73;;;;;;;;;;4912030;28;21497;-77
2022/03/28 03:49:39;;;;;;;24.52;10.45;;;;;;;;;;4898139;28;20045;-77
2022/03/28 03:52:05;;;;;;;25.27;10.05;;;;;;;;;;4911453;28;20677;-77
2022/03/28 03:54:31;;;;;;;25.42;9.82;;;;;;;;;;4896954;28;20047;-77
2022/03/28 03:56:57;;;;;;;27.00;10.52;;;;;;;;;;4896607;28;20600;-77
2022/03/28 03:59:25;;;;;;;30.85;10.32;;;;;;;;;;4900371;28;20164;-77
2022/03/28 04:01:51;;;;;;;29.02;10.65;;;;;;;;;;4895168;28;20050;-77
2022/03/28 04:04:17;;;;;;;29.17;11.02;;;;;;;;;;4895435;28;20758;-77
2022/03/28 04:06:42;;;;;;;27.65;10.93;;;;;;;;;;4896053;28;20046;-77
2022/03/28 04:09:08;;;;;;;27.33;9.70;;;;;;;;;;4895205;28;21295;-77
2022/03/28 04:11:33;;;;;;;27.83;10.70;;;;;;;;;;4896874;28;20080;-77
2022/03/28 04:13:59;;;;;;;32.72;11.65;;;;;;;;;;4897803;28;20037;-77
2022/03/28 04:16:24;;;;;;;29.48;11.25;;;;;;;;;;4906085;28;20158;-76
2022/03/28 04:18:52;;;;;;;34.75;12.00;;;;;;;;;;4899049;28;20176;-77
2022/03/28 04:21:17;;;;;;;31.45;11.77;;;;;;;;;;4913027;28;22060;-77
2022/03/28 04:23:43;;;;;;;29.75;11.10;;;;;;;;;;4901317;28;20042;-77
2022/03/28 04:26:08;;;;;;;30.15;10.32;;;;;;;;;;4894569;28;20673;-76
2022/03/28 04:28:37;;;;;;;25.17;9.75;;;;;;;;;;4896904;28;20487;-76
2022/03/28 04:31:03;;;;;;;31.65;10.63;;;;;;;;;;4898458;28;21502;-77
2022/03/28 04:33:29;;;;;;;40.63;12.52;;;;;;;;;;4899921;28;21913;-77
2022/03/28 04:35:54;;;;;;;28.60;10.57;;;;;;;;;;4894987;28;20671;-77
2022/03/28 04:38:24;;;;;;;26.48;9.52;;;;;;;;;;4897877;28;20192;-76
2022/03/28 04:40:50;;;;;;;;;;;;;;;;;;4896980;28;21299;-76
2022/03/28 04:43:18;;;;;;;36.38;12.15;;;;;;;;;;4903559;28;22024;-77
2022/03/28 04:45:44;;;;;;;26.77;10.73;;;;;;;;;;4902492;28;20548;-77
2022/03/28 04:48:12;;;;;;;26.75;9.57;;;;;;;;;;4899385;28;21992;-78
2022/03/28 04:50:38;;;;;;;24.33;9.25;;;;;;;;;;4899813;28;20152;-77
2022/03/28 04:53:03;;;;;;;26.17;10.18;;;;;;;;;;4898487;28;20049;-77
2022/03/28 04:55:29;;;;;;;31.83;10.73;;;;;;;;;;4900343;28;20030;-77
2022/03/28 04:57:55;;;;;;;27.60;10.73;;;;;;;;;;4901697;28;20072;-77
2022/03/28 05:00:23;;;;;;;32.08;10.50;;;;;;;;;;4902394;28;20030;-76
2022/03/28 05:02:49;;;;;;;29.40;10.30;;;;;;;;;;4904536;28;20038;-77
2022/03/28 05:05:17;;;;;;;30.55;10.25;;;;;;;;;;4897452;28;20124;-77
2022/03/28 05:07:45;;;;;;;32.72;12.38;;;;;;;;;;4904012;28;20033;-76
2022/03/28 05:10:10;;;;;;;31.58;10.90;;;;;;;;;;4896324;28;20343;-75
2022/03/28 05:12:36;;;;;;;30.98;11.50;;;;;;;;;;4886367;28;20643;-75
2022/03/28 05:15:03;;;;;;;28.25;11.27;;;;;;;;;;4885203;28;20046;-75
2022/03/28 05:17:31;;;;;;;25.23;9.48;;;;;;;;;;4886134;28;20033;-75
2022/03/28 05:19:58;;;;;;;24.00;9.90;;;;;;;;;;4903139;28;20786;-75
2022/03/28 05:22:24;;;;;;;31.05;10.48;;;;;;;;;;4886877;28;20042;-75
2022/03/28 05:24:51;;;;;;;30.52;11.60;;;;;;;;;;4889954;28;20077;-76
2022/03/28 05:27:17;;;;;;;31.40;10.60;;;;;;;;;;4888820;28;20165;-75
2022/03/28 05:29:43;;;;;;;26.88;10.10;;;;;;;;;;4891977;28;20750;-76
2022/03/28 05:32:14;;;;;;;32.10;12.85;;;;;;;;;;4885957;28;20838;-76
2022/03/28 05:34:39;;;;;;;28.80;10.63;;;;;;;;;;4891566;28;20038;-75
2022/03/28 05:37:09;;;;;;;30.33;10.68;;;;;;;;;;4889408;28;20053;-75
2022/03/28 05:39:37;;;;;;;26.38;10.35;;;;;;;;;;4887242;28;20041;-75
2022/03/28 05:42:07;;;;;;;27.88;10.73;;;;;;;;;;4890070;28;20042;-76
2022/03/28 05:44:32;;;;;;;;;;;;;;;;;;4896301;28;20042;-76
2022/03/28 05:46:58;;;;;;;32.20;10.38;;;;;;;;;;4897789;28;19922;-76
2022/03/28 05:49:25;;;;;;;27.05;10.98;;;;;;;;;;4889258;28;20191;-76
2022/03/28 05:51:52;;;;;;;30.90;11.05;;;;;;;;;;4886972;28;20611;-75
2022/03/28 05:54:19;;;;;;;32.00;10.93;;;;;;;;;;4885176;28;20148;-75
2022/03/28 05:56:48;;;;;;;28.40;10.90;;;;;;;;;;4890130;28;20067;-76
2022/03/28 05:59:16;;;;;;;26.60;10.70;;;;;;;;;;4891251;28;21396;-76
2022/03/28 06:01:44;;;;;;;31.75;11.85;;;;;;;;;;4890981;28;20676;-75
2022/03/28 06:04:10;;;;;;;28.95;10.50;;;;;;;;;;4895015;28;20081;-75
2022/03/28 06:06:35;;;;;;;27.05;9.93;;;;;;;;;;4888049;28;20034;-75
2022/03/28 06:09:03;;;;;;;22.92;9.55;;;;;;;;;;4885265;28;21212;-76
2022/03/28 06:11:30;;;;;;;31.58;10.55;;;;;;;;;;4891897;28;20678;-75
2022/03/28 06:13:58;;;;;;;27.95;10.57;;;;;;;;;;4881980;28;20541;-76
2022/03/28 06:16:25;;;;;;;28.90;12.10;;;;;;;;;;4884375;28;20038;-75
2022/03/28 06:18:50;;;;;;;32.20;11.30;;;;;;;;;;4890285;28;20049;-75
2022/03/28 06:21:16;;;;;;;34.83;11.45;;;;;;;;;;4902792;28;20042;-75
2022/03/28 06:23:42;;;;;;;29.95;11.50;;;;;;;;;;4889473;28;20437;-75
2022/03/28 06:26:10;;;;;;;31.25;11.75;;;;;;;;;;4891763;28;20460;-75
2022/03/28 06:28:35;;;;;;;31.80;11.60;;;;;;;;;;4886502;28;20031;-75
2022/03/28 06:31:01;;;;;;;27.13;11.10;;;;;;;;;;4888958;28;21402;-75
2022/03/28 06:33:27;;;;;;;29.42;11.50;;;;;;;;;;4886833;28;20030;-75
2022/03/28 06:35:56;;;;;;;28.05;10.90;;;;;;;;;;4885403;28;21310;-75
2022/03/28 06:38:22;;;;;;;27.58;10.88;;;;;;;;;;4891517;28;20402;-75
2022/03/28 06:40:48;;;;;;;36.60;13.93;;;;;;;;;;4896104;28;21564;-75
2022/03/28 06:43:13;;;;;;;36.55;12.10;;;;;;;;;;4886554;28;20038;-75
2022/03/28 06:45:39;;;;;;;32.80;12.25;;;;;;;;;;4886467;28;21616;-75
2022/03/28 06:48:08;;;;;;;27.52;11.93;;;;;;;;;;4888623;28;21676;-76
2022/03/28 06:50:34;;;;;;;29.80;11.90;;;;;;;;;;4908636;28;20080;-76
2022/03/28 06:53:01;;;;;;;28.77;12.38;;;;;;;;;;4892812;28;20128;-75
2022/03/28 06:55:27;;;;;;;30.55;12.50;;;;;;;;;;4893090;28;20735;-75
2022/03/28 06:57:53;;;;;;;32.45;13.50;;;;;;;;;;4893157;28;20049;-75
2022/03/28 07:00:21;;;;;;;31.92;13.13;;;;;;;;;;4889596;28;20638;-75
2022/03/28 07:02:46;;;;;;;34.00;13.20;;;;;;;;;;4895568;28;22137;-75
2022/03/28 07:05:12;;;;;;;29.38;12.43;;;;;;;;;;4891375;28;20065;-74
2022/03/28 07:07:46;;;;;;;29.17;12.82;;;;;;;;;;4890864;28;20038;-75
2022/03/28 07:10:13;;;;;;;35.53;13.40;;;;;;;;;;4888772;28;20998;-75
2022/03/28 07:12:39;;;;;;;30.65;12.35;;;;;;;;;;4888186;28;20038;-75
2022/03/28 07:15:09;;;;;;;28.42;12.57;;;;;;;;;;4884022;28;20039;-74
2022/03/28 07:18:02;;;;;;;36.58;12.70;;;;;;;;;;4885083;28;21614;-76
2022/03/28 07:20:29;;;;;;;33.60;13.13;;;;;;;;;;4884236;28;20041;-75
2022/03/28 07:22:56;;;;;;;33.28;13.55;;;;;;;;;;4882432;28;20049;-76
2022/03/28 07:25:23;;;;;;;35.65;13.25;;;;;;;;;;4884452;28;20042;-75
2022/03/28 07:27:50;;;;;;;36.28;12.18;;;;;;;;;;4883923;28;20412;-77
2022/03/28 07:30:19;;;;;;;34.97;13.05;;;;;;;;;;4884916;28;20072;-75
2022/03/28 07:32:46;;;;;;;36.13;13.02;;;;;;;;;;4882571;28;20135;-74
2022/03/28 07:35:15;;;;;;;38.25;13.27;;;;;;;;;;4884626;28;20054;-75
2022/03/28 07:37:41;;;;;;;34.42;13.32;;;;;;;;;;4883331;28;21273;-75
2022/03/28 07:40:09;;;;;;;30.58;11.98;;;;;;;;;;4885188;28;20616;-75
2022/03/28 07:42:37;;;;;;;31.48;13.27;;;;;;;;;;4882101;28;20053;-75
2022/03/28 07:45:05;;;;;;;32.95;11.85;;;;;;;;;;4882683;28;20471;-75
2022/03/28 07:47:31;;;;;;;38.85;13.50;;;;;;;;;;4887997;28;20200;-75
2022/03/28 07:49:58;;;;;;;34.05;13.23;;;;;;;;;;4889983;28;20445;-75
2022/03/28 07:52:27;;;;;;;35.67;13.38;;;;;;;;;;4886973;28;20127;-75
2022/03/28 07:54:52;;;;;;;36.88;13.77;;;;;;;;;;4884439;28;20432;-75
2022/03/28 07:57:18;;;;;;;30.20;11.95;;;;;;;;;;4883600;28;20097;-76
2022/03/28 07:59:46;;;;;;;38.42;14.00;;;;;;;;;;4883014;28;20038;-75
2022/03/28 08:02:13;;;;;;;37.33;12.60;;;;;;;;;;4883622;28;20038;-74
2022/03/28 08:04:38;;;;;;;36.03;13.50;;;;;;;;;;4884072;28;21657;-75
2022/03/28 08:07:05;;;;;;;36.53;13.85;;;;;;;;;;4885683;28;21553;-75
2022/03/28 08:09:31;;;;;;;45.13;17.88;;;;;;;;;;4885183;28;21559;-75
2022/03/28 08:11:59;;;;;;;54.13;17.75;;;;;;;;;;4880520;28;21199;-76
2022/03/28 08:14:25;;;;;;;52.25;20.02;;;;;;;;;;4884846;28;20173;-77
2022/03/28 08:16:51;;;;;;;45.53;14.45;;;;;;;;;;4890110;28;20034;-74
2022/03/28 08:19:17;;;;;;;43.22;14.82;;;;;;;;;;4885402;28;20494;-75
2022/03/28 08:21:43;;;;;;;42.65;13.88;;;;;;;;;;4884978;28;20539;-75
2022/03/28 08:24:09;;;;;;;42.03;14.18;;;;;;;;;;4885676;28;20038;-74
2022/03/28 08:26:34;;;;;;;34.28;12.75;;;;;;;;;;4898697;28;20172;-75
2022/03/28 08:29:00;;;;;;;37.38;13.68;;;;;;;;;;4880871;28;20538;-74
2022/03/28 08:31:25;;;;;;;39.33;12.30;;;;;;;;;;4886851;28;20030;-75
2022/03/28 08:33:51;;;;;;;40.75;13.90;;;;;;;;;;4882942;28;20034;-74
2022/03/28 08:36:19;;;;;;;43.05;14.40;;;;;;;;;;4888159;28;20141;-76
2022/03/28 08:38:45;;;;;;;39.25;13.43;;;;;;;;;;4885157;28;20144;-75
2022/03/28 08:41:14;;;;;;;40.72;14.45;;;;;;;;;;4900964;28;20102;-75
2022/03/28 08:43:40;;;;;;;39.17;14.07;;;;;;;;;;4882803;28;20109;-75
2022/03/28 08:46:08;;;;;;;40.78;15.13;;;;;;;;;;4882872;28;20034;-75
2022/03/28 08:48:40;;;;;;;38.60;14.60;;;;;;;;;;4881419;28;20173;-73
2022/03/28 08:51:08;;;;;;;37.65;14.02;;;;;;;;;;4884168;28;20034;-74
2022/03/28 08:53:34;;;;;;;43.80;15.38;;;;;;;;;;4891069;28;21861;-74
2022/03/28 08:56:00;;;;;;;38.47;14.57;;;;;;;;;;4888999;28;20102;-74
2022/03/28 08:58:26;;;;;;;39.08;13.50;;;;;;;;;;4888238;28;20443;-75
2022/03/28 09:00:51;;;;;;;35.97;14.07;;;;;;;;;;4884257;28;21567;-76
2022/03/28 09:03:17;;;;;;;46.10;15.70;;;;;;;;;;4894691;28;20995;-76
2022/03/28 09:05:49;;;;;;;45.95;16.30;;;;;;;;;;4894559;28;20095;-76
2022/03/28 09:08:23;;;;;;;42.40;15.27;;;;;;;;;;4890123;28;20077;-76
2022/03/28 09:10:48;;;;;;;33.17;13.43;;;;;;;;;;4900350;28;20140;-75
2022/03/28 09:13:16;;;;;;;39.70;16.60;;;;;;;;;;4898793;28;20049;-75
2022/03/28 09:15:56;;;;;;;43.05;16.40;;;;;;;;;;4885958;28;20908;-75
2022/03/28 09:18:25;;;;;;;;;;;;;;;;;;4889880;28;20116;-75
2022/03/28 09:20:52;;;;;;;;;;;;;;;;;;4885195;28;20028;-75
2022/03/28 09:23:29;;;;;;;44.95;15.55;;;;;;;;;;4886418;28;19921;-76
2022/03/28 09:25:58;;;;;;;42.47;16.55;;;;;;;;;;4891099;28;20030;-76
2022/03/28 09:28:25;;;;;;;41.45;16.20;;;;;;;;;;4899567;28;20245;-76
2022/03/28 09:30:50;;;;;;;40.95;15.57;;;;;;;;;;4890790;28;20034;-75
2022/03/28 09:33:18;;;;;;;41.45;15.25;;;;;;;;;;4889059;28;21386;-75
2022/03/28 09:35:49;;;;;;;42.67;16.38;;;;;;;;;;4890282;28;20124;-75
2022/03/28 09:38:18;;;;;;;38.67;15.73;;;;;;;;;;4893806;28;20718;-76
2022/03/28 09:40:51;;;;;;;46.27;16.43;;;;;;;;;;4890163;28;22053;-74
2022/03/28 09:43:18;;;;;;;47.33;15.20;;;;;;;;;;4904014;28;20271;-75
2022/03/28 09:45:57;;;;;;;38.60;15.50;;;;;;;;;;4894083;28;21243;-74
2022/03/28 09:48:25;;;;;;;38.30;15.60;;;;;;;;;;4891481;28;20035;-74
2022/03/28 09:51:05;;;;;;;44.22;16.42;;;;;;;;;;4890630;28;20072;-75
2022/03/28 09:53:38;;;;;;;43.83;15.75;;;;;;;;;;4892729;28;20042;-74
2022/03/28 09:56:06;;;;;;;43.70;16.30;;;;;;;;;;4897176;28;20077;-75
2022/03/28 09:58:42;;;;;;;47.92;17.88;;;;;;;;;;4891185;28;20378;-74
2022/03/28 10:01:17;;;;;;;41.90;16.52;;;;;;;;;;4887451;28;20366;-74
2022/03/28 10:04:00;;;;;;;43.00;17.27;;;;;;;;;;4888570;28;21268;-75
2022/03/28 10:06:29;;;;;;;42.45;17.70;;;;;;;;;;4886168;28;21180;-76
2022/03/28 10:08:54;;;;;;;45.65;18.38;;;;;;;;;;4890002;28;20615;-76
2022/03/28 10:11:22;;;;;;;44.45;18.05;;;;;;;;;;4886298;28;21451;-76
2022/03/28 10:13:48;;;;;;;42.72;18.33;;;;;;;;;;4886809;28;20046;-76
2022/03/28 10:16:15;;;;;;;43.45;18.58;;;;;;;;;;4884525;28;20038;-76
2022/03/28 10:18:42;;;;;;;45.00;20.38;;;;;;;;;;4886752;28;21328;-76
2022/03/28 10:21:17;;;;;;;40.67;18.90;;;;;;;;;;4887764;28;20045;-76
2022/03/28 10:24:12;;;;;;;33.65;15.52;;;;;;;;;;4889863;28;20034;-75
2022/03/28 10:26:42;;;;;;;42.45;18.48;;;;;;;;;;4884004;28;20549;-75
2022/03/28 10:29:10;;;;;;;34.10;16.98;;;;;;;;;;4897259;28;20318;-76
2022/03/28 10:31:51;;;;;;;37.42;17.38;;;;;;;;;;4876761;28;20736;-76
2022/03/28 10:34:42;;;;;;;37.65;16.95;;;;;;;;;;4874430;28;20042;-75
2022/03/28 10:37:27;;;;;;;34.97;16.45;;;;;;;;;;4891742;28;20178;-76
2022/03/28 10:40:22;;;;;;;41.05;19.17;;;;;;;;;;4894058;28;20030;-76
2022/03/28 10:43:09;;;;;;;36.08;18.23;;;;;;;;;;4884321;28;21943;-75
2022/03/28 10:45:59;;;;;;;37.85;17.52;;;;;;;;;;4888239;28;20271;-76
2022/03/28 10:48:47;;;;;;;41.60;18.38;;;;;;;;;;4889286;28;20042;-77
2022/03/28 10:51:19;;;;;;;39.05;19.10;;;;;;;;;;4888887;28;21846;-76
2022/03/28 10:53:47;;;;;;;36.95;17.45;;;;;;;;;;4886774;28;20131;-75
2022/03/28 10:56:18;;;;;;;36.33;17.55;;;;;;;;;;4887119;28;20459;-75
2022/03/28 10:58:55;;;;;;;38.38;17.13;;;;;;;;;;4893604;28;20038;-75
2022/03/28 11:01:24;;;;;;;33.70;16.92;;;;;;;;;;4889825;28;20738;-75
2022/03/28 11:03:53;;;;;;;38.65;18.42;;;;;;;;;;4886467;28;20034;-75
2022/03/28 11:06:45;;;;;;;32.90;16.83;;;;;;;;;;4890619;28;20042;-76
2022/03/28 11:09:14;;;;;;;32.35;16.67;;;;;;;;;;4882010;28;20057;-76
2022/03/28 11:11:57;;;;;;;31.37;17.10;;;;;;;;;;4886987;28;21866;-76
2022/03/28 11:14:43;;;;;;;30.60;15.77;;;;;;;;;;4883888;28;20038;-75
2022/03/28 11:17:23;;;;;;;41.13;17.95;;;;;;;;;;4890861;28;20131;-75
2022/03/28 11:19:51;;;;;;;;;;;;;;;;;;4888039;28;20074;-75
2022/03/28 11:22:16;;;;;;;35.58;17.52;;;;;;;;;;4885528;28;20445;-76
2022/03/28 11:24:51;;;;;;;32.05;16.73;;;;;;;;;;4893256;28;20912;-76
2022/03/28 11:27:21;;;;;;;35.67;18.02;;;;;;;;;;4896101;28;20159;-75
2022/03/28 11:29:48;;;;;;;46.03;17.05;;;;;;;;;;4891905;28;20042;-76
2022/03/28 11:32:20;;;;;;;33.22;16.52;;;;;;;;;;4890568;28;20042;-76
2022/03/28 11:34:51;;;;;;;36.20;16.08;;;;;;;;;;4892894;28;20056;-75
2022/03/28 11:37:19;;;;;;;24.27;12.80;;;;;;;;;;4884641;28;20093;-75
2022/03/28 11:39:59;;;;;;;25.20;11.48;;;;;;;;;;4886610;28;20038;-75
2022/03/28 11:42:30;;;;;;;21.25;12.05;;;;;;;;;;4891006;28;20078;-76
2022/03/28 11:44:57;;;;;;;22.35;12.07;;;;;;;;;;4901064;28;22498;-75
2022/03/28 11:47:23;;;;;;;26.92;13.80;;;;;;;;;;4889259;28;20038;-75
2022/03/28 11:49:59;;;;;;;35.88;20.52;;;;;;;;;;4890506;28;21268;-76
2022/03/28 11:52:26;;;;;;;26.85;15.00;;;;;;;;;;4887362;28;20085;-76
2022/03/28 11:54:53;;;;;;;28.80;15.07;;;;;;;;;;4884970;28;22099;-76
2022/03/28 12:00:18;;;;;;;27.23;14.40;;;;;;;;;;4891092;28;20600;-75
2022/03/28 12:02:57;;;;;;;28.40;15.15;;;;;;;;;;4902027;28;20133;-76
2022/03/28 12:05:32;;;;;;;37.20;15.02;;;;;;;;;;4891994;28;20045;-76
2022/03/28 12:08:00;;;;;;;34.33;15.93;;;;;;;;;;4890359;28;20152;-75
2022/03/28 12:10:32;;;;;;;29.75;15.18;;;;;;;;;;4887473;28;20061;-75
2022/03/28 12:13:00;;;;;;;29.80;15.63;;;;;;;;;;4894143;28;20506;-75
2022/03/28 12:15:31;;;;;;;32.75;17.77;;;;;;;;;;4885873;28;20241;-76
2022/03/28 12:17:59;;;;;;;32.40;14.73;;;;;;;;;;4890758;28;20125;-75
2022/03/28 12:20:36;;;;;;;34.92;22.33;;;;;;;;;;4884900;28;20034;-75
2022/03/28 12:23:04;;;;;;;31.08;16.35;;;;;;;;;;4887574;28;20050;-74
2022/03/28 12:25:36;;;;;;;33.80;18.80;;;;;;;;;;4889911;28;20780;-75
2022/03/28 12:28:06;;;;;;;31.17;17.20;;;;;;;;;;4886134;28;20038;-76
2022/03/28 12:30:55;;;;;;;34.58;17.95;;;;;;;;;;4884878;28;21785;-74
2022/03/28 12:33:21;;;;;;;31.73;17.38;;;;;;;;;;4883898;28;20711;-74
2022/03/28 12:35:51;;;;;;;28.10;15.93;;;;;;;;;;4895048;28;20038;-74
2022/03/28 12:38:23;;;;;;;31.20;16.08;;;;;;;;;;4884502;28;21211;-74
2022/03/28 12:40:56;;;;;;;29.27;16.48;;;;;;;;;;4884083;28;20034;-75
2022/03/28 12:43:25;;;;;;;33.47;16.55;;;;;;;;;;4885581;28;20771;-74
2022/03/28 12:45:55;;;;;;;25.40;14.85;;;;;;;;;;4886994;28;20108;-75
2022/03/28 12:48:35;;;;;;;25.60;14.95;;;;;;;;;;4892613;28;22270;-76
2022/03/28 12:51:00;;;;;;;26.45;14.48;;;;;;;;;;4892972;28;20655;-76
2022/03/28 12:53:29;;;;;;;27.83;14.82;;;;;;;;;;4887043;28;20178;-76
2022/03/28 12:56:13;;;;;;;26.85;15.60;;;;;;;;;;4886715;28;20569;-76
2022/03/28 12:58:40;;;;;;;28.95;15.63;;;;;;;;;;4889473;28;20042;-75
2022/03/28 13:01:09;;;;;;;25.23;14.18;;;;;;;;;;4898430;28;20108;-75
2022/03/28 13:03:35;;;;;;;28.38;14.20;;;;;;;;;;4887132;28;20030;-76
2022/03/28 13:06:07;;;;;;;24.75;14.25;;;;;;;;;;4888472;28;20760;-76
2022/03/28 13:08:38;;;;;;;29.02;14.05;;;;;;;;;;4898855;28;20198;-75
2022/03/28 13:11:17;;;;;;;28.63;14.43;;;;;;;;;;4885371;28;20045;-76
2022/03/28 13:13:48;;;;;;;24.70;14.02;;;;;;;;;;4889374;28;21829;-76
2022/03/28 13:16:27;;;;;;;27.00;14.95;;;;;;;;;;4886918;28;21074;-75
2022/03/28 13:19:00;;;;;;;24.77;14.30;;;;;;;;;;4887697;28;20159;-75
2022/03/28 13:21:45;;;;;;;25.02;14.40;;;;;;;;;;4881719;28;20037;-76
2022/03/28 13:24:13;;;;;;;28.60;15.25;;;;;;;;;;4878108;28;21544;-76
2022/03/28 13:26:46;;;;;;;30.67;15.82;;;;;;;;;;4881475;28;21744;-76
2022/03/28 13:29:25;;;;;;;29.98;15.48;;;;;;;;;;4880321;28;20053;-75
2022/03/28 13:31:51;;;;;;;28.73;15.23;;;;;;;;;;4889162;28;20034;-76
2022/03/28 13:34:17;;;;;;;28.23;15.65;;;;;;;;;;4885900;28;20109;-75
2022/03/28 13:36:45;;;;;;;27.08;15.25;;;;;;;;;;4889049;28;20050;-75
2022/03/28 13:39:11;;;;;;;32.78;16.55;;;;;;;;;;4883314;28;20752;-75
2022/03/28 13:41:36;;;;;;;26.77;15.38;;;;;;;;;;4884331;28;20049;-75
2022/03/28 13:44:06;;;;;;;25.98;15.82;;;;;;;;;;4889947;28;21090;-74
2022/03/28 13:46:31;;;;;;;27.73;14.85;;;;;;;;;;4882053;28;20041;-75
2022/03/28 13:48:58;;;;;;;26.95;15.18;;;;;;;;;;4884335;28;20039;-74
2022/03/28 13:51:26;;;;;;;26.23;14.43;;;;;;;;;;4899082;28;20054;-75
2022/03/28 13:53:51;;;;;;;25.65;15.25;;;;;;;;;;4886270;28;20643;-75
2022/03/28 13:56:17;;;;;;;24.45;14.48;;;;;;;;;;4885908;28;20147;-75
2022/03/28 13:58:42;;;;;;;26.00;14.25;;;;;;;;;;4886951;28;20049;-75
2022/03/28 14:01:08;;;;;;;25.20;14.20;;;;;;;;;;4884649;28;20046;-76
2022/03/28 14:03:34;;;;;;;29.17;13.65;;;;;;;;;;4883715;28;20693;-76
2022/03/28 14:06:01;;;;;;;25.67;14.55;;;;;;;;;;4883020;28;20065;-75
2022/03/28 14:08:33;;;;;;;37.67;19.20;;;;;;;;;;4885792;28;20128;-75
2022/03/28 14:10:58;;;;;;;44.03;20.55;;;;;;;;;;4880504;28;20145;-76
2022/03/28 14:13:27;;;;;;;42.20;20.83;;;;;;;;;;4878958;28;20312;-75
2022/03/28 14:15:57;;;;;;;46.90;21.10;;;;;;;;;;4885545;28;20169;-75
2022/03/28 14:18:23;;;;;;;43.20;21.38;;;;;;;;;;4886085;28;20121;-74
2022/03/28 14:20:49;;;;;;;46.28;21.00;;;;;;;;;;4883922;28;20108;-78
2022/03/28 14:23:17;;;;;;;45.00;21.10;;;;;;;;;;4883416;28;20512;-74
2022/03/28 14:25:43;;;;;;;49.97;21.63;;;;;;;;;;4884320;28;20757;-74
2022/03/28 14:28:11;;;;;;;50.72;21.90;;;;;;;;;;4884264;28;20622;-75
2022/03/28 14:30:37;;;;;;;43.05;21.27;;;;;;;;;;4886992;28;20455;-74